Terminal Aerodrome Forecast
Issued by NWS Albuquerque, NM

Home | Current Version | Previous Version | Text Only | Print | Product List | Glossary On
Versions: 1 2 3 4 5 6 7 8 9 10 11 12 13 14 15 16 17 18 19 20 21 22
800
FTUS45 KABQ 221129
TAFABQ
TAF
KABQ 221129Z 2212/2312 VRB04KT P6SM SCT040
      TEMPO 2212/2215 BKN040
     FM221800 31008KT P6SM SCT150
     FM222200 30008KT P6SM SCT050 BKN100
     FM230200 VRB05KT P6SM BKN050=

USA.gov is the U.S. government's official web portal to all federal, state and local government web resources and services.